createdAt,value
2023-03-20T00:00:03.855Z,86.52
2023-03-20T00:02:33.382Z,85.94
2023-03-20T00:05:02.104Z,86.11
2023-03-20T00:07:30.815Z,86.74
2023-03-20T00:10:01.225Z,86.63
2023-03-20T00:12:29.947Z,86.50
2023-03-20T00:15:06.807Z,86.25
2023-03-20T00:17:35.846Z,85.76
2023-03-20T00:20:05.222Z,85.50
2023-03-20T00:22:33.945Z,86.41
2023-03-20T00:25:02.670Z,86.21
2023-03-20T00:27:31.464Z,85.69
2023-03-20T00:30:02.352Z,85.77
2023-03-20T00:32:30.964Z,85.80
2023-03-20T00:34:59.665Z,86.84
2023-03-20T00:37:29.080Z,86.40
2023-03-20T00:39:59.479Z,86.20
2023-03-20T00:42:29.009Z,86.31
2023-03-20T00:44:59.745Z,85.81
2023-03-20T00:47:30.477Z,85.98
2023-03-20T00:49:59.456Z,87.37
2023-03-20T00:52:28.700Z,86.71
2023-03-20T00:54:57.393Z,87.10
2023-03-20T00:57:31.558Z,86.40
2023-03-20T01:00:06.276Z,86.31
2023-03-20T01:02:36.604Z,86.10
2023-03-20T01:05:06.676Z,85.90
2023-03-20T01:07:35.483Z,86.69
2023-03-20T01:10:05.695Z,86.77
2023-03-20T01:12:34.561Z,86.75
2023-03-20T01:15:21.137Z,86.80
2023-03-20T01:17:52.986Z,87.00
2023-03-20T01:20:25.818Z,86.97
2023-03-20T01:22:55.060Z,86.63
2023-03-20T01:25:24.347Z,86.99
2023-03-20T01:27:55.769Z,87.07
2023-03-20T01:30:27.729Z,87.15
2023-03-20T01:32:59.035Z,88.00
2023-03-20T01:35:29.590Z,87.51
2023-03-20T01:38:02.895Z,87.07
2023-03-20T01:40:43.009Z,86.98
2023-03-20T01:43:19.487Z,88.41
2023-03-20T01:46:04.308Z,88.11
2023-03-20T01:49:02.604Z,89.06
2023-03-20T01:51:35.604Z,88.56
2023-03-20T01:54:16.124Z,88.08
2023-03-20T01:57:06.769Z,88.90
2023-03-20T01:59:42.382Z,88.34
2023-03-20T02:02:17.809Z,88.60
2023-03-20T02:04:53.475Z,88.25
2023-03-20T02:07:25.305Z,88.29
2023-03-20T02:10:09.793Z,87.91
2023-03-20T02:13:05.874Z,88.10
2023-03-20T02:16:01.504Z,87.75
2023-03-20T02:18:56.527Z,87.81
2023-03-20T02:22:14.894Z,88.19
2023-03-20T02:25:22.564Z,87.97
2023-03-20T02:28:33.783Z,87.57
2023-03-20T02:31:54.397Z,87.38
2023-03-20T02:35:26.041Z,87.62
2023-03-20T02:38:32.078Z,88.27
2023-03-20T02:41:14.806Z,87.96
2023-03-20T02:43:52.825Z,87.58
2023-03-20T02:46:34.281Z,87.45
2023-03-20T02:49:24.934Z,88.54
2023-03-20T02:52:05.341Z,88.27
2023-03-20T02:54:45.390Z,88.09
2023-03-20T02:57:24.610Z,88.07
2023-03-20T03:00:04.301Z,88.29
2023-03-20T03:02:39.273Z,87.80
2023-03-20T03:05:20.601Z,88.37
2023-03-20T03:07:53.738Z,88.11
2023-03-20T03:10:29.892Z,88.29
2023-03-20T03:13:03.614Z,88.23
2023-03-20T03:15:39.942Z,87.90
2023-03-20T03:18:15.439Z,88.48
2023-03-20T03:20:48.085Z,87.97
2023-03-20T03:23:27.716Z,88.42
2023-03-20T03:26:01.332Z,88.12
2023-03-20T03:28:38.985Z,87.84
2023-03-20T03:31:11.050Z,88.94
2023-03-20T03:33:44.425Z,89.11
2023-03-20T03:36:25.547Z,89.09
2023-03-20T03:39:01.884Z,88.71
2023-03-20T03:41:38.816Z,88.49
2023-03-20T03:44:16.912Z,88.54
2023-03-20T03:46:53.979Z,88.14
2023-03-20T03:49:28.472Z,88.25
2023-03-20T03:52:02.602Z,88.34
2023-03-20T03:54:41.720Z,88.36
2023-03-20T03:57:39.087Z,88.54
2023-03-20T04:00:17.237Z,88.53
2023-03-20T04:02:51.048Z,88.51
2023-03-20T04:05:22.798Z,88.03
2023-03-20T04:07:57.699Z,88.30
2023-03-20T04:10:26.789Z,88.64
2023-03-20T04:12:56.896Z,88.70
2023-03-20T04:15:27.722Z,90.42
2023-03-20T04:17:56.970Z,89.15
2023-03-20T04:20:25.981Z,89.35
2023-03-20T04:22:54.836Z,88.99
2023-03-20T04:25:29.800Z,89.01
2023-03-20T04:28:01.009Z,89.29
2023-03-20T04:30:54.914Z,88.48
2023-03-20T04:33:47.516Z,89.78
2023-03-20T04:36:22.185Z,89.38
2023-03-20T04:38:56.341Z,88.70
2023-03-20T04:41:26.637Z,88.61
2023-03-20T04:44:00.325Z,88.88
2023-03-20T04:46:29.251Z,88.29
2023-03-20T04:48:59.317Z,87.92
2023-03-20T04:51:44.822Z,87.92
2023-03-20T04:54:17.128Z,87.82
2023-03-20T04:56:47.426Z,88.63
2023-03-20T04:59:20.976Z,89.37
2023-03-20T05:01:49.897Z,88.56
2023-03-20T05:04:18.778Z,88.72
2023-03-20T05:06:49.565Z,89.15
2023-03-20T05:09:23.504Z,88.60
2023-03-20T05:11:56.776Z,89.32
2023-03-20T05:15:08.663Z,89.84
2023-03-20T05:17:57.085Z,89.53
2023-03-20T05:20:44.598Z,89.26
2023-03-20T05:23:43.562Z,89.08
2023-03-20T05:26:32.406Z,88.66
2023-03-20T05:29:26.308Z,88.76
2023-03-20T05:32:08.031Z,88.93
2023-03-20T05:35:12.364Z,88.55
2023-03-20T05:37:59.442Z,89.28
2023-03-20T05:40:48.774Z,89.38
2023-03-20T05:43:32.418Z,89.42
2023-03-20T05:46:33.311Z,89.21
2023-03-20T05:49:50.525Z,89.20
2023-03-20T05:52:30.670Z,89.95
2023-03-20T05:55:10.266Z,89.46
2023-03-20T05:57:51.549Z,89.65
2023-03-20T06:00:44.568Z,89.54
2023-03-20T06:03:39.301Z,88.99
2023-03-20T06:06:16.119Z,89.24
2023-03-20T06:08:49.702Z,89.26
2023-03-20T06:11:21.253Z,89.59
2023-03-20T06:13:51.256Z,89.20
2023-03-20T06:16:23.327Z,89.47
2023-03-20T06:18:53.057Z,89.31
2023-03-20T06:21:23.432Z,89.49
2023-03-20T06:23:52.490Z,89.43
2023-03-20T06:26:24.187Z,89.62
2023-03-20T06:29:00.861Z,89.35
2023-03-20T06:31:30.519Z,89.77
2023-03-20T06:34:00.905Z,89.56
2023-03-20T06:36:32.699Z,90.16
2023-03-20T06:39:08.338Z,89.62
2023-03-20T06:41:37.166Z,89.47
2023-03-20T06:44:11.028Z,89.60
2023-03-20T06:47:15.997Z,89.22
2023-03-20T06:49:46.064Z,88.98
2023-03-20T06:52:19.810Z,88.65
2023-03-20T06:59:51.263Z,87.86
2023-03-20T07:03:08.990Z,87.21
2023-03-20T07:05:44.952Z,87.13
2023-03-20T07:08:39.467Z,86.64
2023-03-20T07:11:09.324Z,86.37
2023-03-20T07:13:39.364Z,87.27
2023-03-20T07:16:19.318Z,87.03
2023-03-20T07:18:48.501Z,86.75
2023-03-20T07:21:22.902Z,86.61
2023-03-20T07:23:53.059Z,86.41
2023-03-20T07:26:21.803Z,85.88
2023-03-20T07:28:50.523Z,86.57
2023-03-20T07:31:29.826Z,86.10
2023-03-20T07:34:15.627Z,85.82
2023-03-20T07:36:44.844Z,85.42
2023-03-20T07:39:19.246Z,85.71
2023-03-20T07:41:58.722Z,85.16
2023-03-20T07:44:39.661Z,83.86
2023-03-20T07:47:12.771Z,84.49
2023-03-20T07:49:41.634Z,84.51
2023-03-20T07:52:10.583Z,85.67
2023-03-20T07:54:40.646Z,84.45
2023-03-20T07:57:09.573Z,84.76
2023-03-20T07:59:38.346Z,85.73
2023-03-20T08:02:07.204Z,85.06
2023-03-20T08:04:36.570Z,85.17
2023-03-20T08:07:05.679Z,84.33
2023-03-20T08:09:34.723Z,83.20
2023-03-20T08:12:05.042Z,83.85
2023-03-20T08:14:33.693Z,83.59
2023-03-20T08:17:14.607Z,82.44
2023-03-20T08:19:44.785Z,83.06
2023-03-20T08:22:13.741Z,83.18
2023-03-20T08:24:42.471Z,83.13
2023-03-20T08:27:12.658Z,82.02
2023-03-20T08:29:41.393Z,82.12
2023-03-20T08:32:10.485Z,82.47
2023-03-20T08:34:39.270Z,82.03
2023-03-20T08:37:08.186Z,83.06
2023-03-20T08:39:37.817Z,82.40
2023-03-20T08:42:06.745Z,82.35
2023-03-20T08:44:36.914Z,84.08
2023-03-20T08:47:07.828Z,82.82
2023-03-20T08:49:37.041Z,82.05
2023-03-20T08:52:05.989Z,82.23
2023-03-20T08:54:35.152Z,80.01
2023-03-20T08:57:04.151Z,81.32
2023-03-20T08:59:33.184Z,80.39
2023-03-20T09:02:03.256Z,80.15
2023-03-20T09:04:31.966Z,79.79
2023-03-20T09:07:01.884Z,80.25
2023-03-20T09:09:30.791Z,80.46
2023-03-20T09:12:00.560Z,80.57
2023-03-20T09:14:30.610Z,81.75
2023-03-20T09:16:59.467Z,81.07
2023-03-20T09:19:30.723Z,80.29
2023-03-20T09:22:01.179Z,79.60
2023-03-20T09:24:31.682Z,78.95
2023-03-20T09:27:03.609Z,79.81
2023-03-20T09:29:32.673Z,81.01
2023-03-20T09:32:01.315Z,80.76
2023-03-20T09:34:31.437Z,79.74
2023-03-20T09:37:03.179Z,79.88
2023-03-20T09:39:32.069Z,79.66
2023-03-20T09:42:15.620Z,79.21
2023-03-20T09:45:00.477Z,78.91
2023-03-20T09:47:40.173Z,79.32
2023-03-20T09:50:34.588Z,78.62
2023-03-20T09:53:12.321Z,80.23
2023-03-20T09:55:43.166Z,79.35
2023-03-20T09:58:19.659Z,79.45
2023-03-20T10:00:49.302Z,80.14
2023-03-20T10:03:23.669Z,80.42
2023-03-20T10:06:01.714Z,79.59
2023-03-20T10:08:36.318Z,80.97
2023-03-20T10:11:24.108Z,80.25
2023-03-20T10:14:16.735Z,81.21
2023-03-20T10:17:02.486Z,81.10
2023-03-20T10:19:33.567Z,79.93
2023-03-20T10:22:17.116Z,78.04
2023-03-20T10:24:56.974Z,76.31
2023-03-20T10:27:30.565Z,75.95
2023-03-20T10:30:23.124Z,73.09
2023-03-20T10:33:05.136Z,73.26
2023-03-20T10:35:46.269Z,73.73
2023-03-20T10:38:34.568Z,73.65
2023-03-20T10:41:05.605Z,73.49
2023-03-20T10:43:39.417Z,74.08
2023-03-20T10:46:15.246Z,74.05
2023-03-20T10:48:50.282Z,75.86
2023-03-20T10:51:23.487Z,74.98
2023-03-20T10:54:01.356Z,76.05
2023-03-20T10:56:37.959Z,76.08
2023-03-20T10:59:14.953Z,75.19
2023-03-20T11:01:43.577Z,75.14
2023-03-20T11:04:12.295Z,74.59
2023-03-20T11:06:48.201Z,74.82
2023-03-20T11:09:23.124Z,74.89
2023-03-20T11:11:58.125Z,75.08
2023-03-20T11:14:35.121Z,75.45
2023-03-20T11:17:06.814Z,76.29
2023-03-20T11:19:38.206Z,76.19
2023-03-20T11:22:23.200Z,76.04
2023-03-20T11:25:01.603Z,76.75
2023-03-20T11:27:33.028Z,76.76
2023-03-20T11:30:05.675Z,76.37
2023-03-20T11:32:37.580Z,76.45
2023-03-20T11:35:19.947Z,75.85
2023-03-20T11:37:52.495Z,75.79
2023-03-20T11:40:32.443Z,75.53
2023-03-20T11:43:11.348Z,75.00
2023-03-20T11:45:44.090Z,74.74
2023-03-20T11:48:21.062Z,75.17
2023-03-20T11:50:57.711Z,75.61
2023-03-20T12:00:19.507Z,75.50
2023-03-20T12:02:49.617Z,75.78
2023-03-20T12:05:33.758Z,75.59
2023-03-20T12:08:11.494Z,75.57
2023-03-20T12:10:47.272Z,76.01
2023-03-20T12:13:25.024Z,75.83
2023-03-20T12:16:02.763Z,74.95
2023-03-20T12:18:39.740Z,75.40
2023-03-20T12:21:14.765Z,75.43
2023-03-20T12:23:50.820Z,75.08
2023-03-20T12:26:29.023Z,74.35
2023-03-20T12:29:06.573Z,73.30
2023-03-20T12:31:43.476Z,73.85
2023-03-20T12:34:20.791Z,73.52
2023-03-20T12:36:53.070Z,73.48
2023-03-20T12:39:26.378Z,73.93
2023-03-20T12:42:15.554Z,74.97
2023-03-20T12:44:52.392Z,74.95
2023-03-20T12:47:58.839Z,73.87
2023-03-20T12:50:48.093Z,74.53
2023-03-20T12:53:40.340Z,74.87
2023-03-20T12:56:30.098Z,75.06
2023-03-20T12:59:08.591Z,74.87
2023-03-20T13:01:49.821Z,74.94
2023-03-20T13:04:48.577Z,74.35
2023-03-20T13:07:23.487Z,74.48
2023-03-20T13:10:13.845Z,75.22
2023-03-20T13:12:58.011Z,75.27
2023-03-20T13:15:57.841Z,74.71
2023-03-20T13:18:48.408Z,74.15
2023-03-20T13:21:28.874Z,74.46
2023-03-20T13:24:17.682Z,74.55
2023-03-20T13:26:57.079Z,75.35
2023-03-20T13:29:35.153Z,75.01
2023-03-20T13:32:20.397Z,75.10
2023-03-20T13:35:20.745Z,74.99
2023-03-20T13:37:53.624Z,74.68
2023-03-20T13:40:28.399Z,74.63
2023-03-20T13:43:05.296Z,74.66
2023-03-20T13:45:39.798Z,74.93
2023-03-20T13:48:29.395Z,74.84
2023-03-20T13:51:11.405Z,74.54
2023-03-20T13:53:56.253Z,74.55
2023-03-20T13:56:41.999Z,74.74
2023-03-20T13:59:51.713Z,75.70
2023-03-20T14:02:46.497Z,76.31
2023-03-20T14:05:21.635Z,76.69
2023-03-20T14:07:56.544Z,77.66
2023-03-20T14:10:39.805Z,77.38
2023-03-20T14:13:18.493Z,77.81
2023-03-20T14:15:58.449Z,77.23
2023-03-20T14:18:28.161Z,77.89
2023-03-20T14:21:00.946Z,77.70
2023-03-20T14:23:40.135Z,78.90
2023-03-20T14:26:26.070Z,80.24
2023-03-20T14:29:06.659Z,79.94
2023-03-20T14:31:38.919Z,79.52
2023-03-20T14:34:19.165Z,77.86
2023-03-20T14:36:58.720Z,78.75
2023-03-20T14:39:45.036Z,78.69
2023-03-20T14:42:31.888Z,78.56
2023-03-20T14:45:48.745Z,78.89
2023-03-20T14:48:33.218Z,78.49
2023-03-20T14:51:29.901Z,78.04
2023-03-20T14:54:20.071Z,77.45
2023-03-20T14:56:50.533Z,77.70
2023-03-20T14:59:22.569Z,77.75
2023-03-20T15:02:00.627Z,77.83
2023-03-20T15:04:37.661Z,77.80
2023-03-20T15:07:16.697Z,77.47
2023-03-20T15:09:48.773Z,78.27
2023-03-20T15:12:22.574Z,78.67
2023-03-20T15:14:57.656Z,78.72
2023-03-20T15:17:36.989Z,77.94
2023-03-20T15:20:17.450Z,77.95
2023-03-20T15:22:52.964Z,77.71
2023-03-20T15:25:29.743Z,78.69
2023-03-20T15:28:06.062Z,77.89
2023-03-20T15:30:39.827Z,78.04
2023-03-20T15:33:18.138Z,77.84
2023-03-20T15:35:47.683Z,78.49
2023-03-20T15:38:19.318Z,78.95
2023-03-20T15:40:51.350Z,79.04
2023-03-20T15:43:24.457Z,79.77
2023-03-20T15:46:16.923Z,79.29
2023-03-20T15:48:51.335Z,78.72
2023-03-20T15:51:24.624Z,79.13
2023-03-20T15:53:53.393Z,78.77
2023-03-20T15:56:28.429Z,79.21
2023-03-20T15:58:59.095Z,79.87
2023-03-20T16:01:33.381Z,79.75
2023-03-20T16:04:05.926Z,79.90
2023-03-20T16:06:34.711Z,80.07
2023-03-20T16:09:08.759Z,80.01
2023-03-20T16:11:40.567Z,79.53
2023-03-20T16:14:24.194Z,79.57
2023-03-20T16:16:57.440Z,79.84
2023-03-20T16:19:30.204Z,79.88
2023-03-20T16:22:04.133Z,80.29
2023-03-20T16:24:39.988Z,80.64
2023-03-20T16:27:10.981Z,80.78
2023-03-20T16:29:45.376Z,80.98
2023-03-20T16:32:27.976Z,80.85
2023-03-20T16:35:01.538Z,81.07
2023-03-20T16:37:33.599Z,81.03
2023-03-20T16:40:19.726Z,81.96
2023-03-20T16:42:50.144Z,81.86
2023-03-20T16:45:27.125Z,81.78
2023-03-20T16:48:28.400Z,81.22
2023-03-20T16:51:04.205Z,81.16
2023-03-20T16:53:42.408Z,81.37
2023-03-20T16:56:17.565Z,81.46
2023-03-20T16:58:47.384Z,81.30
2023-03-20T17:01:23.402Z,81.33
2023-03-20T17:03:56.615Z,81.17
2023-03-20T17:06:49.765Z,81.28
2023-03-20T17:09:27.189Z,81.53
2023-03-20T17:12:06.810Z,81.88
2023-03-20T17:14:35.492Z,81.68
2023-03-20T17:18:14.291Z,81.66
2023-03-20T17:20:43.544Z,81.45
2023-03-20T17:23:20.714Z,81.37
2023-03-20T17:25:51.833Z,81.89
2023-03-20T17:28:24.369Z,82.13
2023-03-20T17:30:53.850Z,81.92
2023-03-20T17:33:22.878Z,81.75
2023-03-20T17:35:53.757Z,81.78
2023-03-20T17:38:26.391Z,81.74
2023-03-20T17:40:56.484Z,81.49
2023-03-20T17:43:25.817Z,81.35
2023-03-20T17:45:54.561Z,81.45
2023-03-20T17:48:23.519Z,81.30
2023-03-20T17:50:52.341Z,81.43
2023-03-20T17:53:25.712Z,81.45
2023-03-20T17:55:54.885Z,81.41
2023-03-20T17:58:25.152Z,81.58
2023-03-20T18:00:56.220Z,81.42
2023-03-20T18:03:25.062Z,81.02
2023-03-20T18:05:53.856Z,81.44
2023-03-20T18:08:25.414Z,81.33
2023-03-20T18:10:55.558Z,81.23
2023-03-20T18:13:27.294Z,81.41
2023-03-20T18:16:00.701Z,81.11
2023-03-20T18:18:30.306Z,81.18
2023-03-20T18:21:00.714Z,81.18
2023-03-20T18:23:34.413Z,81.06
2023-03-20T18:26:04.026Z,82.20
2023-03-20T18:28:33.015Z,81.90
2023-03-20T18:31:01.739Z,81.27
2023-03-20T18:33:30.603Z,81.19
2023-03-20T18:35:59.422Z,82.23
2023-03-20T18:38:33.088Z,82.50
2023-03-20T18:41:02.325Z,82.61
2023-03-20T18:43:31.161Z,82.26
2023-03-20T18:45:59.956Z,82.56
2023-03-20T18:48:30.625Z,83.14
2023-03-20T18:51:02.669Z,83.03
2023-03-20T18:53:33.044Z,82.98
2023-03-20T18:56:01.781Z,82.64
2023-03-20T18:58:32.431Z,83.15
2023-03-20T19:01:01.225Z,82.95
2023-03-20T19:03:30.157Z,83.30
2023-03-20T19:06:00.465Z,83.87
2023-03-20T19:08:35.258Z,84.09
2023-03-20T19:11:04.165Z,83.25
2023-03-20T19:13:33.320Z,82.96
2023-03-20T19:16:02.453Z,83.00
2023-03-20T19:18:32.487Z,83.29
2023-03-20T19:21:01.282Z,83.11
2023-03-20T19:23:30.067Z,83.10
2023-03-20T19:26:00.138Z,83.32
2023-03-20T19:28:40.535Z,83.38
2023-03-20T19:31:10.969Z,83.20
2023-03-20T19:33:40.904Z,83.10
2023-03-20T19:36:33.730Z,83.58
2023-03-20T19:39:09.622Z,83.62
2023-03-20T19:41:39.771Z,83.73
2023-03-20T19:44:08.509Z,84.08
2023-03-20T19:46:40.792Z,83.67
2023-03-20T19:49:19.772Z,83.68
2023-03-20T19:51:49.978Z,83.51
2023-03-20T19:54:19.015Z,83.48
2023-03-20T19:56:49.105Z,83.00
2023-03-20T19:59:45.618Z,83.63
2023-03-20T20:02:14.469Z,83.97
2023-03-20T20:04:44.203Z,84.18
2023-03-20T20:08:00.703Z,83.29
2023-03-20T20:10:05.548Z,83.67
2023-03-20T20:12:39.444Z,83.49
2023-03-20T20:15:11.292Z,83.32
2023-03-20T20:17:42.524Z,83.61
2023-03-20T20:20:14.745Z,83.18
2023-03-20T20:22:44.390Z,82.60
2023-03-20T20:25:14.935Z,82.23
2023-03-20T20:27:46.700Z,83.54
2023-03-20T20:30:19.989Z,83.02
2023-03-20T20:32:50.119Z,83.53
2023-03-20T20:35:43.952Z,84.26
2023-03-20T20:38:40.318Z,84.16
2023-03-20T20:40:57.818Z,84.08
2023-03-20T20:44:01.144Z,84.13
2023-03-20T20:46:17.033Z,84.10
2023-03-20T20:48:46.670Z,84.07
2023-03-20T20:51:19.372Z,83.40
2023-03-20T20:53:48.996Z,83.74
2023-03-20T20:56:21.226Z,84.42
2023-03-20T20:58:52.071Z,84.72
2023-03-20T21:01:20.934Z,85.17
2023-03-20T21:03:49.630Z,85.30
2023-03-20T21:06:18.372Z,84.67
2023-03-20T21:08:47.192Z,85.12
2023-03-20T21:11:16.697Z,84.86
2023-03-20T21:13:45.593Z,84.13
2023-03-20T21:16:17.827Z,84.13
2023-03-20T21:18:46.536Z,84.53
2023-03-20T21:21:16.167Z,84.69
2023-03-20T21:23:46.112Z,84.57
2023-03-20T21:26:14.948Z,85.60
2023-03-20T21:28:43.664Z,85.26
2023-03-20T21:31:24.410Z,84.55
2023-03-20T21:33:55.563Z,84.38
2023-03-20T21:36:24.984Z,84.75
2023-03-20T21:39:06.884Z,86.02
2023-03-20T21:41:37.781Z,85.96
2023-03-20T21:44:07.413Z,85.66
2023-03-20T22:10:07.980Z,87.90
2023-03-20T22:21:21.812Z,88.87
2023-03-20T22:24:05.729Z,88.56
2023-03-20T22:35:25.448Z,89.57
2023-03-20T22:38:08.974Z,89.47
2023-03-20T22:41:09.569Z,89.68
2023-03-20T22:46:10.146Z,89.33
2023-03-20T22:48:45.304Z,89.61
2023-03-20T22:51:14.050Z,89.84
2023-03-20T22:53:42.744Z,89.33
2023-03-20T22:56:14.242Z,89.50
2023-03-20T22:58:42.944Z,89.87
2023-03-20T23:01:12.591Z,90.22
2023-03-20T23:03:42.380Z,90.52
2023-03-20T23:06:20.429Z,90.76
2023-03-20T23:08:55.124Z,90.73
2023-03-20T23:11:28.774Z,91.14
2023-03-20T23:13:58.033Z,90.86
2023-03-20T23:16:26.915Z,91.24
2023-03-20T23:18:55.646Z,91.75
2023-03-20T23:21:25.584Z,92.06
2023-03-20T23:23:54.271Z,91.70
2023-03-20T23:26:23.222Z,91.86
2023-03-20T23:28:53.890Z,91.76
2023-03-20T23:31:25.931Z,91.51
2023-03-20T23:33:58.190Z,91.57
2023-03-20T23:36:36.506Z,91.89
2023-03-20T23:39:07.394Z,91.47
2023-03-20T23:42:05.043Z,91.25
2023-03-20T23:44:26.917Z,91.21
2023-03-20T23:46:55.857Z,91.64
2023-03-20T23:49:24.544Z,91.32
2023-03-20T23:51:53.310Z,91.16
2023-03-20T23:54:21.999Z,91.13
2023-03-20T23:56:50.620Z,90.94
2023-03-20T23:59:22.312Z,91.06
